Time;durP1;ratioP1;P1;durP2;ratioP2;P2;SDS_P1;SDS_P2;PMS_P1;PMS_P2;Temp;Humidity;BMP_temperature;BMP_pressure;BME280_temperature;BME280_humidity;BME280_pressure;Samples;Min_cycle;Max_cycle;Signal;HPM_P1;HPM_P2
2023/03/20 00:00:09;;;;;;;24.33;15.55;;;;;;;8.83;97.06;101877.06;5051173;28;20127;-41
2023/03/20 00:02:37;;;;;;;24.35;15.50;;;;;;;8.85;97.56;101883.13;5053041;28;20056;-42
2023/03/20 00:05:14;;;;;;;24.95;15.82;;;;;;;8.83;97.31;101885.34;5054256;28;20037;-41
2023/03/20 00:07:39;;;;;;;23.42;14.60;;;;;;;8.86;97.59;101887.53;5054812;28;20150;-41
2023/03/20 00:10:05;;;;;;;24.75;15.30;;;;;;;8.81;97.57;101884.78;5054742;28;20047;-41
2023/03/20 00:12:31;;;;;;;25.40;15.38;;;;;;;8.82;97.36;101883.69;5054729;28;20041;-41
2023/03/20 00:14:56;;;;;;;22.90;14.80;;;;;;;8.81;97.39;101885.59;5053430;28;20036;-41
2023/03/20 00:17:21;;;;;;;26.70;15.00;;;;;;;8.80;96.94;101877.59;5054348;28;20098;-42
2023/03/20 00:19:47;;;;;;;24.65;15.05;;;;;;;8.83;97.44;101883.41;5054216;28;20052;-41
2023/03/20 00:22:12;;;;;;;23.13;14.80;;;;;;;8.79;96.63;101875.94;5054501;28;20027;-41
2023/03/20 00:24:37;;;;;;;24.15;15.57;;;;;;;8.76;96.97;101869.03;5053881;28;20475;-41
2023/03/20 00:27:04;;;;;;;24.23;15.27;;;;;;;8.79;96.76;101873.16;5053489;28;20116;-41
2023/03/20 00:29:31;;;;;;;24.80;15.55;;;;;;;8.76;96.61;101880.06;5052783;28;20028;-42
2023/03/20 00:31:57;;;;;;;24.08;15.82;;;;;;;8.71;96.53;101860.72;5046913;28;20032;-40
2023/03/20 00:34:26;;;;;;;24.80;15.07;;;;;;;8.65;96.85;101856.28;5052358;28;20116;-41
2023/03/20 00:36:52;;;;;;;25.77;15.55;;;;;;;8.73;96.93;101866.78;5053861;28;20025;-42
2023/03/20 00:39:18;;;;;;;25.13;15.55;;;;;;;8.71;96.53;101856.03;5054019;28;20504;-41
2023/03/20 00:41:49;;;;;;;25.60;15.75;;;;;;;8.72;96.48;101851.34;5054027;28;20433;-41
2023/03/20 00:44:20;;;;;;;25.00;16.20;;;;;;;8.71;96.32;101839.50;5053712;28;20034;-41
2023/03/20 00:46:49;;;;;;;25.77;16.13;;;;;;;8.69;95.95;101843.63;5053486;28;20021;-41
2023/03/20 00:49:15;;;;;;;25.27;16.27;;;;;;;8.64;95.75;101830.63;5053376;28;20040;-41
2023/03/20 00:51:41;;;;;;;24.95;15.63;;;;;;;8.68;95.69;101828.97;5052358;28;20384;-41
2023/03/20 00:54:14;;;;;;;24.83;15.68;;;;;;;8.65;95.49;101828.69;5053793;28;20029;-41
2023/03/20 00:56:48;;;;;;;24.40;15.52;;;;;;;8.65;95.74;101834.22;5053767;28;20033;-41
2023/03/20 00:59:17;;;;;;;23.52;14.48;;;;;;;8.66;95.01;101842.19;5053753;28;20056;-41
2023/03/20 01:01:42;;;;;;;23.73;15.45;;;;;;;8.66;95.10;101849.66;5053409;28;20017;-41
2023/03/20 01:04:14;;;;;;;25.05;15.30;;;;;;;8.68;95.37;101855.75;5052450;28;20082;-41
2023/03/20 01:06:39;;;;;;;25.48;14.98;;;;;;;8.66;95.23;101866.22;5053370;28;20549;-40
2023/03/20 01:09:05;;;;;;;25.67;15.60;;;;;;;8.68;95.28;101881.41;5053378;28;20029;-40
2023/03/20 01:11:31;;;;;;;23.90;15.75;;;;;;;8.66;95.23;101864.28;5053550;28;20388;-41
2023/03/20 01:13:56;;;;;;;24.27;15.27;;;;;;;8.68;95.29;101883.34;5052446;28;20029;-41
2023/03/20 01:16:25;;;;;;;25.80;15.40;;;;;;;8.61;94.98;101880.81;5053340;28;20086;-41
2023/03/20 01:18:51;;;;;;;24.50;15.70;;;;;;;8.63;95.31;101886.91;5053249;28;20033;-41
2023/03/20 01:21:18;;;;;;;23.73;15.45;;;;;;;8.59;95.04;101871.97;5052995;28;20098;-41
2023/03/20 01:23:43;;;;;;;25.90;15.15;;;;;;;8.57;94.34;101875.00;5051789;28;20383;-41
2023/03/20 01:26:28;;;;;;;23.88;15.27;;;;;;;8.58;94.98;101873.91;5052759;28;20116;-40
2023/03/20 01:28:53;;;;;;;26.95;15.85;;;;;;;8.52;94.63;101869.44;5046998;28;20333;-41
2023/03/20 01:31:19;;;;;;;25.63;16.10;;;;;;;8.42;94.43;101875.72;5053229;28;20021;-40
2023/03/20 01:33:45;;;;;;;26.15;15.60;;;;;;;8.38;94.16;101874.56;5052858;28;20392;-41
2023/03/20 01:36:13;;;;;;;25.25;15.73;;;;;;;8.35;94.21;101886.16;5052830;28;20025;-41
2023/03/20 01:38:39;;;;;;;24.85;15.60;;;;;;;8.28;94.18;101893.78;5053049;28;20060;-41
2023/03/20 01:41:15;;;;;;;24.08;14.68;;;;;;;8.27;94.41;101895.72;5053073;28;20107;-41
2023/03/20 01:43:42;;;;;;;26.92;16.10;;;;;;;8.24;93.84;101895.44;5052209;28;20531;-41
2023/03/20 01:46:10;;;;;;;24.52;16.33;;;;;;;8.27;94.49;101894.88;5052692;28;20029;-45
2023/03/20 01:48:59;;;;;;;26.63;16.70;;;;;;;8.22;93.83;101889.34;5052405;28;20035;-41
2023/03/20 01:51:31;;;;;;;25.50;16.02;;;;;;;8.15;93.53;101897.84;5052606;28;20040;-41
2023/03/20 01:54:14;;;;;;;25.75;16.58;;;;;;;8.12;93.87;101879.91;5052262;28;20471;-41
2023/03/20 01:56:58;;;;;;;27.45;17.00;;;;;;;8.05;94.22;101864.69;5053061;28;20485;-41
2023/03/20 01:59:33;;;;;;;25.98;16.48;;;;;;;8.00;94.38;101867.41;5052656;28;20033;-42
2023/03/20 02:01:59;;;;;;;27.05;16.95;;;;;;;8.02;94.54;101884.53;5052098;28;20442;-41
2023/03/20 02:04:32;;;;;;;26.85;17.13;;;;;;;7.99;94.79;101874.84;5052402;28;20021;-41
2023/03/20 02:06:59;;;;;;;26.13;16.67;;;;;;;7.95;95.03;101870.97;5052649;28;20407;-41
2023/03/20 02:09:24;;;;;;;27.88;17.13;;;;;;;7.91;95.03;101875.31;5052495;28;20053;-41
2023/03/20 02:11:50;;;;;;;27.35;17.30;;;;;;;7.88;95.32;101862.91;5052426;28;20076;-40
2023/03/20 02:14:17;;;;;;;28.67;18.17;;;;;;;7.87;95.54;101864.00;5052124;28;20029;-41
2023/03/20 02:16:42;;;;;;;27.70;17.23;;;;;;;7.85;95.64;101860.66;5050868;28;20024;-41
2023/03/20 02:19:17;;;;;;;28.05;17.45;;;;;;;7.83;95.60;101878.56;5050712;28;20033;-41
2023/03/20 02:21:52;;;;;;;26.75;16.80;;;;;;;7.78;95.71;101884.88;5050549;28;20178;-41
2023/03/20 02:24:52;;;;;;;29.42;16.85;;;;;;;7.76;95.67;101881.53;5045675;28;20391;-40
2023/03/20 02:27:42;;;;;;;28.30;17.55;;;;;;;7.71;95.88;101885.06;5052051;28;20037;-41
2023/03/20 02:30:31;;;;;;;27.17;17.10;;;;;;;7.66;95.82;101893.28;5051412;28;20168;-41
2023/03/20 02:33:24;;;;;;;30.98;17.30;;;;;;;7.62;95.96;101893.00;5051301;28;20033;-41
2023/03/20 02:36:03;;;;;;;28.33;17.92;;;;;;;7.59;96.13;101884.41;5052051;28;20476;-40
2023/03/20 02:38:55;;;;;;;26.15;17.27;;;;;;;7.60;96.53;101895.16;5051844;28;20033;-41
2023/03/20 02:41:37;;;;;;;28.75;18.23;;;;;;;7.56;96.20;101894.00;5051737;28;20060;-40
2023/03/20 02:44:18;;;;;;;29.95;18.00;;;;;;;7.54;96.46;101884.34;5051519;28;20031;-41
2023/03/20 02:46:46;;;;;;;28.23;17.92;;;;;;;7.53;96.45;101879.94;5051697;28;20495;-41
2023/03/20 02:49:44;;;;;;;27.73;18.08;;;;;;;7.56;96.71;101876.66;5051332;28;20029;-41
2023/03/20 02:52:43;;;;;;;31.95;19.15;;;;;;;7.49;96.39;101857.59;5050049;28;20528;-41
2023/03/20 02:55:23;;;;;;;27.15;18.05;;;;;;;7.57;97.65;101870.06;5051446;28;20036;-41
2023/03/20 02:58:11;;;;;;;31.38;18.95;;;;;;;7.55;96.45;101867.59;5051136;28;20121;-41
2023/03/20 03:00:47;;;;;;;29.88;18.50;;;;;;;7.50;96.53;101864.78;5051406;28;20108;-41
2023/03/20 03:03:18;;;;;;;29.48;19.73;;;;;;;7.46;96.70;101852.63;5051546;28;20032;-41
2023/03/20 03:05:48;;;;;;;29.88;19.15;;;;;;;7.38;96.47;101848.41;5049863;28;20025;-41
2023/03/20 03:08:18;;;;;;;28.90;18.70;;;;;;;7.36;96.75;101852.53;5050952;28;20032;-41
2023/03/20 03:10:48;;;;;;;30.02;17.25;;;;;;;7.37;97.15;101860.53;5050703;28;20044;-41
2023/03/20 03:13:20;;;;;;;29.77;18.65;;;;;;;7.37;97.11;101837.69;5050789;28;20033;-41
2023/03/20 03:15:51;;;;;;;30.77;19.08;;;;;;;7.33;97.17;101843.69;5051128;28;20029;-41
2023/03/20 03:18:20;;;;;;;30.48;18.98;;;;;;;7.18;96.82;101829.75;5051140;28;20555;-41
2023/03/20 03:20:49;;;;;;;30.63;19.00;;;;;;;7.27;97.27;101836.47;5050627;28;20060;-41
2023/03/20 03:23:29;;;;;;;28.38;18.85;;;;;;;7.26;97.34;101815.56;5051125;28;20040;-42
2023/03/20 03:25:57;;;;;;;28.75;18.48;;;;;;;7.31;97.09;101832.09;5051548;28;20021;-41
2023/03/20 03:28:37;;;;;;;30.15;18.42;;;;;;;7.31;97.03;101821.09;5051182;28;20515;-41
2023/03/20 03:31:10;;;;;;;30.60;18.58;;;;;;;7.26;97.04;101809.19;5050237;28;20071;-41
2023/03/20 03:33:40;;;;;;;27.47;18.53;;;;;;;7.31;96.96;101814.78;5051240;28;20032;-41
2023/03/20 03:36:12;;;;;;;29.45;18.40;;;;;;;7.25;96.80;101813.03;5051862;28;20394;-41
2023/03/20 03:38:47;;;;;;;28.65;18.45;;;;;;;7.22;97.22;101822.66;5055355;28;20182;-41
2023/03/20 03:41:25;;;;;;;28.33;17.88;;;;;;;7.19;97.24;101823.16;5055104;28;20021;-41
2023/03/20 03:44:01;;;;;;;29.08;18.70;;;;;;;7.17;97.71;101819.88;5055245;28;20025;-41
2023/03/20 03:46:38;;;;;;;29.75;18.45;;;;;;;7.13;97.54;101822.28;5054981;28;20029;-41
2023/03/20 03:49:06;;;;;;;28.70;18.25;;;;;;;7.13;97.88;101813.19;5054432;28;20048;-41
2023/03/20 03:51:37;;;;;;;28.90;18.13;;;;;;;7.09;97.71;101817.53;5054716;28;20553;-41
2023/03/20 03:54:14;;;;;;;27.63;18.50;;;;;;;7.09;97.98;101821.16;5054740;28;20032;-41
2023/03/20 03:56:43;;;;;;;29.40;18.83;;;;;;;7.05;97.80;101814.47;5055033;28;20037;-41
2023/03/20 03:59:16;;;;;;;29.70;18.55;;;;;;;7.02;98.03;101820.53;5053908;28;20102;-41
2023/03/20 04:01:43;;;;;;;28.42;17.55;;;;;;;7.02;97.95;101815.84;5054683;28;20067;-40
2023/03/20 04:04:11;;;;;;;31.35;19.08;;;;;;;7.00;97.78;101817.19;5054323;28;20033;-41
2023/03/20 04:06:36;;;;;;;29.48;18.85;;;;;;;6.97;97.90;101812.19;5053056;28;20029;-40
2023/03/20 04:09:02;;;;;;;27.95;17.75;;;;;;;6.96;98.04;101810.53;5053762;28;20036;-41
2023/03/20 04:11:28;;;;;;;27.23;18.67;;;;;;;6.94;98.00;101815.47;5054577;28;20024;-41
2023/03/20 04:13:54;;;;;;;26.42;17.77;;;;;;;6.93;98.34;101811.06;5054385;28;20098;-42
2023/03/20 04:16:22;;;;;;;29.40;18.33;;;;;;;6.84;98.05;101805.19;5054691;28;20063;-40
2023/03/20 04:18:48;;;;;;;25.63;17.40;;;;;;;6.87;98.17;101804.66;5053191;28;20036;-41
2023/03/20 04:21:14;;;;;;;27.73;17.70;;;;;;;6.89;98.04;101802.50;5054523;28;20045;-41
2023/03/20 04:23:40;;;;;;;29.67;17.98;;;;;;;6.90;97.56;101800.56;5054394;28;20476;-41
2023/03/20 04:26:06;;;;;;;27.30;18.48;;;;;;;6.94;97.79;101801.72;5054061;28;20024;-41
2023/03/20 04:28:31;;;;;;;28.83;18.15;;;;;;;6.91;97.24;101800.31;5053958;28;20036;-41
2023/03/20 04:30:58;;;;;;;26.45;17.50;;;;;;;6.92;97.51;101799.22;5053541;28;20087;-41
2023/03/20 04:33:25;;;;;;;27.70;18.58;;;;;;;6.92;97.00;101801.97;5053076;28;20052;-40
2023/03/20 04:35:50;;;;;;;26.85;17.45;;;;;;;6.90;96.72;101798.63;5054293;28;20083;-40
2023/03/20 04:38:17;;;;;;;28.90;17.42;;;;;;;6.85;96.90;101802.16;5052737;28;20025;-41
2023/03/20 04:40:46;;;;;;;26.73;16.73;;;;;;;6.87;96.99;101796.41;5054161;28;20446;-41
2023/03/20 04:43:12;;;;;;;26.08;17.17;;;;;;;6.88;97.55;101784.34;5053925;28;20447;-41
2023/03/20 04:45:38;;;;;;;29.90;18.08;;;;;;;6.88;96.76;101787.09;5054192;28;20116;-41
2023/03/20 04:48:03;;;;;;;27.10;17.60;;;;;;;6.91;96.64;101781.03;5053750;28;20132;-41
2023/03/20 04:50:29;;;;;;;27.23;17.73;;;;;;;6.92;96.54;101770.88;5052851;28;20124;-40
2023/03/20 04:52:54;;;;;;;28.10;17.95;;;;;;;6.89;96.52;101775.00;5053995;28;20044;-40
2023/03/20 04:55:21;;;;;;;27.75;18.45;;;;;;;6.82;96.42;101768.84;5053955;28;20028;-42
2023/03/20 04:57:46;;;;;;;26.67;18.67;;;;;;;6.83;97.01;101765.00;5054086;28;20029;-42
2023/03/20 05:00:12;;;;;;;27.75;18.05;;;;;;;6.76;96.80;101765.19;5052554;28;20021;-41
2023/03/20 05:02:37;;;;;;;29.48;19.08;;;;;;;6.74;96.88;101777.56;5053623;28;20587;-41
2023/03/20 05:05:03;;;;;;;26.85;18.25;;;;;;;6.81;98.37;101786.44;5053736;28;20048;-41
2023/03/20 05:07:28;;;;;;;28.88;19.08;;;;;;;6.77;97.45;101799.06;5053833;28;20115;-40
2023/03/20 05:09:54;;;;;;;27.08;18.13;;;;;;;6.75;97.13;101791.06;5053667;28;20028;-40
2023/03/20 05:12:20;;;;;;;29.85;17.80;;;;;;;6.76;97.30;101789.13;5053558;28;20021;-40
2023/03/20 05:14:45;;;;;;;26.95;18.30;;;;;;;6.75;97.74;101787.47;5052961;28;20166;-41
2023/03/20 05:17:10;;;;;;;27.88;18.88;;;;;;;6.74;97.29;101788.56;5053113;28;20036;-40
2023/03/20 05:19:37;;;;;;;28.33;18.40;;;;;;;6.73;97.56;101774.00;5052975;28;20039;-41
2023/03/20 05:22:02;;;;;;;29.10;18.20;;;;;;;6.76;97.60;101775.38;5053096;28;20028;-41
2023/03/20 05:24:28;;;;;;;28.30;18.70;;;;;;;6.70;97.07;101764.34;5051533;28;20032;-41
2023/03/20 05:26:53;;;;;;;25.63;18.20;;;;;;;6.67;97.33;101767.59;5052766;28;20033;-41
2023/03/20 05:29:19;;;;;;;26.98;17.88;;;;;;;6.67;97.43;101773.09;5053006;28;20032;-41
2023/03/20 05:31:44;;;;;;;29.23;17.92;;;;;;;6.70;97.34;101783.59;5052746;28;20107;-42
2023/03/20 05:34:10;;;;;;;28.02;18.15;;;;;;;6.70;97.73;101788.25;5052189;28;20443;-41
2023/03/20 05:36:35;;;;;;;27.55;18.60;;;;;;;6.70;97.25;101777.25;5051024;28;20063;-41
2023/03/20 05:39:00;;;;;;;27.33;18.05;;;;;;;6.66;97.38;101768.69;5052480;28;20057;-41
2023/03/20 05:41:26;;;;;;;25.98;17.63;;;;;;;6.65;97.59;101767.00;5052827;28;20112;-41
2023/03/20 05:43:51;;;;;;;26.20;17.33;;;;;;;6.70;97.55;101774.50;5052747;28;20037;-40
2023/03/20 05:46:16;;;;;;;26.52;17.13;;;;;;;6.70;97.25;101785.50;5052760;28;20025;-41
2023/03/20 05:48:41;;;;;;;27.40;17.70;;;;;;;6.66;97.83;101773.34;5052577;28;20119;-40
2023/03/20 05:51:07;;;;;;;28.98;18.00;;;;;;;6.66;97.69;101785.19;5052020;28;20526;-41
2023/03/20 05:53:32;;;;;;;27.88;17.52;;;;;;;6.70;97.89;101789.09;5052200;28;20075;-40
2023/03/20 05:55:57;;;;;;;28.27;17.98;;;;;;;6.70;97.86;101791.00;5050871;28;20549;-40
2023/03/20 05:58:23;;;;;;;28.17;17.30;;;;;;;6.72;97.76;101794.31;5043091;28;20120;-40
2023/03/20 06:00:48;;;;;;;27.58;17.67;;;;;;;6.75;97.71;101798.47;5032296;28;20041;-41
2023/03/20 06:03:14;;;;;;;26.05;17.63;;;;;;;6.81;97.79;101806.53;5031095;28;20037;-40
2023/03/20 06:05:40;;;;;;;28.88;18.17;;;;;;;6.84;97.97;101808.78;5032408;28;20068;-41
2023/03/20 06:08:05;;;;;;;26.83;17.05;;;;;;;6.80;97.59;101799.38;5032479;28;20488;-41
2023/03/20 06:10:31;;;;;;;26.50;16.30;;;;;;;6.78;97.27;101801.53;5032576;28;20028;-41
2023/03/20 06:12:59;;;;;;;27.10;16.85;;;;;;;6.83;97.38;101807.09;5032554;28;20040;-40
2023/03/20 06:15:25;;;;;;;27.35;16.45;;;;;;;6.87;97.18;101812.91;5032417;28;20112;-40
2023/03/20 06:17:51;;;;;;;26.02;16.30;;;;;;;6.90;96.80;101822.56;5032850;28;20527;-41
2023/03/20 06:20:16;;;;;;;28.77;16.15;;;;;;;6.89;97.24;101816.25;5030739;28;20067;-41
2023/03/20 06:22:42;;;;;;;25.88;16.00;;;;;;;6.93;97.24;101817.38;5032307;28;20112;-41
2023/03/20 06:25:07;;;;;;;26.58;16.30;;;;;;;6.96;97.14;101822.38;5032241;28;20021;-40
2023/03/20 06:27:33;;;;;;;25.52;17.13;;;;;;;6.97;96.80;101818.53;5032341;28;20469;-40
2023/03/20 06:29:58;;;;;;;25.67;16.27;;;;;;;6.98;96.53;101822.13;5042587;28;20029;-40
2023/03/20 06:32:23;;;;;;;26.83;16.27;;;;;;;7.02;96.96;101817.78;5050917;28;20039;-40
2023/03/20 06:34:49;;;;;;;26.38;17.00;;;;;;;7.06;96.62;101826.34;5051775;28;20060;-41
2023/03/20 06:37:14;;;;;;;26.33;16.52;;;;;;;7.06;96.50;101820.84;5052023;28;20427;-40
2023/03/20 06:39:40;;;;;;;29.77;16.30;;;;;;;7.12;96.08;101830.78;5051877;28;20036;-40
2023/03/20 06:42:06;;;;;;;25.40;16.40;;;;;;;7.16;96.05;101826.44;5051701;28;20025;-40
2023/03/20 06:44:31;;;;;;;24.58;15.82;;;;;;;7.19;95.57;101828.66;5051692;28;20536;-40
2023/03/20 06:46:56;;;;;;;25.77;15.95;;;;;;;7.22;95.50;101835.59;5051704;28;20040;-41
2023/03/20 06:49:22;;;;;;;28.02;15.90;;;;;;;7.23;95.56;101839.97;5051374;28;20043;-42
2023/03/20 06:51:47;;;;;;;26.35;16.05;;;;;;;7.26;95.00;101845.81;5048425;28;20393;-41
2023/03/20 06:54:13;;;;;;;24.30;15.23;;;;;;;7.31;95.21;101842.28;5042706;28;20080;-41
2023/03/20 06:56:38;;;;;;;25.30;15.52;;;;;;;7.32;95.12;101850.28;5040071;28;20036;-41
2023/03/20 06:59:03;;;;;;;25.38;15.75;;;;;;;7.37;94.67;101851.44;5047343;28;20020;-41
2023/03/20 07:01:29;;;;;;;25.13;15.85;;;;;;;7.41;94.80;101845.16;5051199;28;20050;-40
2023/03/20 07:03:54;;;;;;;25.60;16.73;;;;;;;7.59;95.48;101852.19;5049973;28;20113;-40
2023/03/20 07:06:20;;;;;;;23.52;15.50;;;;;;;7.76;95.90;101846.56;5051540;28;20040;-40
2023/03/20 07:08:45;;;;;;;25.02;16.45;;;;;;;7.87;93.50;101852.97;5051385;28;20028;-41
2023/03/20 07:11:11;;;;;;;27.27;16.75;;;;;;;7.91;93.31;101854.13;5051111;28;20388;-40
2023/03/20 07:13:36;;;;;;;23.70;15.40;;;;;;;7.96;92.64;101853.34;5051482;28;20537;-41
2023/03/20 07:16:02;;;;;;;25.98;15.60;;;;;;;8.02;92.75;101855.03;5051243;28;20033;-41
2023/03/20 07:18:27;;;;;;;26.17;15.73;;;;;;;8.04;91.34;101865.78;5049693;28;20036;-41
2023/03/20 07:20:58;;;;;;;26.65;16.10;;;;;;;8.10;92.29;101864.75;5049468;28;20601;-41
2023/03/20 07:23:24;;;;;;;24.98;15.52;;;;;;;8.10;91.95;101864.75;5046750;28;20116;-41
2023/03/20 07:25:49;;;;;;;24.00;14.80;;;;;;;8.19;92.18;101873.34;5047706;28;20155;-40
2023/03/20 07:28:15;;;;;;;24.67;16.13;;;;;;;8.23;90.46;101874.47;5047477;28;20025;-40
2023/03/20 07:30:40;;;;;;;24.02;15.70;;;;;;;8.18;89.52;101877.19;5047707;28;20032;-40
2023/03/20 07:33:06;;;;;;;27.02;15.90;;;;;;;8.17;90.28;101875.53;5048853;28;20071;-40
2023/03/20 07:35:32;;;;;;;25.35;15.38;;;;;;;8.15;89.80;101870.28;5048203;28;20230;-40
2023/03/20 07:37:57;;;;;;;24.50;14.95;;;;;;;8.14;89.77;101867.78;5047814;28;20441;-41
2023/03/20 07:40:22;;;;;;;26.48;15.32;;;;;;;8.20;89.58;101875.00;5047544;28;20068;-43
2023/03/20 07:42:48;;;;;;;23.67;15.20;;;;;;;8.25;89.34;101881.38;5047609;28;20036;-41
2023/03/20 07:45:15;;;;;;;24.95;15.27;;;;;;;8.26;88.59;101872.00;5047383;28;20090;-41
2023/03/20 07:47:41;;;;;;;28.10;18.10;;;;;;;8.27;88.94;101872.84;5047777;28;20482;-41
2023/03/20 07:50:07;;;;;;;26.23;16.95;;;;;;;8.32;88.62;101877.56;5046649;28;20037;-41
2023/03/20 07:52:32;;;;;;;27.45;17.75;;;;;;;8.34;88.48;101873.47;5047218;28;20425;-41
2023/03/20 07:54:57;;;;;;;27.35;15.85;;;;;;;8.37;88.22;101869.31;5049151;28;20033;-41
2023/03/20 07:57:22;;;;;;;26.90;15.18;;;;;;;8.40;88.15;101866.88;5051194;28;20099;-41
2023/03/20 07:59:48;;;;;;;25.55;15.13;;;;;;;8.52;88.13;101863.94;5051010;28;20028;-41
2023/03/20 08:02:15;;;;;;;25.13;15.30;;;;;;;8.55;87.12;101871.69;5049908;28;20017;-41
2023/03/20 08:04:40;;;;;;;24.38;14.95;;;;;;;8.51;86.71;101867.78;5051014;28;20040;-41
2023/03/20 08:07:06;;;;;;;24.05;15.02;;;;;;;8.53;86.51;101873.88;5051125;28;20040;-41
2023/03/20 08:09:31;;;;;;;25.63;15.15;;;;;;;8.49;86.23;101858.13;5050870;28;20078;-41
2023/03/20 08:11:56;;;;;;;24.17;15.25;;;;;;;8.53;85.72;101873.06;5051022;28;20082;-42
2023/03/20 08:14:22;;;;;;;26.88;15.98;;;;;;;8.53;86.08;101868.34;5051031;28;20040;-41
2023/03/20 08:16:47;;;;;;;23.60;15.10;;;;;;;8.55;85.60;101874.44;5051051;28;20025;-41
2023/03/20 08:19:12;;;;;;;23.05;14.93;;;;;;;8.52;85.19;101863.09;5051028;28;20468;-41
2023/03/20 08:21:39;;;;;;;25.48;15.23;;;;;;;8.56;85.72;101872.50;5050415;28;20057;-41
2023/03/20 08:24:05;;;;;;;24.95;14.27;;;;;;;8.56;85.53;101870.59;5054323;28;20029;-41
2023/03/20 08:26:30;;;;;;;25.92;15.38;;;;;;;8.59;85.50;101871.97;5054201;28;20464;-41
2023/03/20 08:28:56;;;;;;;24.52;14.77;;;;;;;8.58;84.90;101868.41;5054445;28;20017;-42
2023/03/20 08:31:21;;;;;;;26.17;14.32;;;;;;;8.58;84.81;101868.41;5054683;28;20461;-42
2023/03/20 08:33:47;;;;;;;23.92;14.20;;;;;;;8.59;84.88;101860.94;5052991;28;20040;-42
2023/03/20 08:36:14;;;;;;;24.23;14.20;;;;;;;8.58;84.16;101873.06;5054512;28;20072;-41
2023/03/20 08:38:40;;;;;;;27.20;14.52;;;;;;;8.69;84.90;101871.22;5054282;28;20106;-42
2023/03/20 08:41:06;;;;;;;26.08;14.82;;;;;;;8.71;84.16;101871.75;5054168;28;20068;-42
2023/03/20 08:43:31;;;;;;;24.27;14.40;;;;;;;8.64;84.00;101860.97;5054148;28;20453;-41
2023/03/20 08:45:56;;;;;;;24.70;14.75;;;;;;;8.75;84.31;101875.63;5054081;28;20017;-42
2023/03/20 08:48:22;;;;;;;23.58;14.75;;;;;;;8.75;83.59;101872.88;5054166;28;20459;-41
2023/03/20 08:50:47;;;;;;;22.75;13.73;;;;;;;8.80;84.36;101870.13;5054293;28;20033;-41
2023/03/20 08:53:12;;;;;;;24.50;14.30;;;;;;;8.82;83.56;101876.22;5054122;28;20032;-41
2023/03/20 08:55:38;;;;;;;23.85;13.73;;;;;;;8.85;83.45;101869.31;5052721;28;20068;-42
2023/03/20 08:58:03;;;;;;;26.58;14.45;;;;;;;8.92;82.85;101863.56;5053673;28;20556;-41
2023/03/20 09:00:28;;;;;;;24.90;14.80;;;;;;;8.92;83.15;101856.13;5053866;28;20033;-42
2023/03/20 09:02:54;;;;;;;24.15;13.88;;;;;;;8.94;82.46;101862.19;5052678;28;20036;-42
2023/03/20 09:05:19;;;;;;;24.15;13.80;;;;;;;9.01;83.07;101857.28;5052486;28;20122;-44
2023/03/20 09:07:45;;;;;;;22.80;13.48;;;;;;;9.06;83.43;101859.22;5053903;28;20044;-42
2023/03/20 09:10:11;;;;;;;22.08;13.07;;;;;;;9.12;83.39;101855.38;5053768;28;20501;-42
2023/03/20 09:12:37;;;;;;;24.98;14.50;;;;;;;9.09;82.53;101852.31;5053691;28;20032;-42
2023/03/20 09:15:03;;;;;;;23.60;13.60;;;;;;;9.07;81.87;101854.50;5053762;28;20029;-42
2023/03/20 09:17:30;;;;;;;24.35;13.45;;;;;;;9.08;82.36;101857.00;5053721;28;20033;-42
2023/03/20 09:19:55;;;;;;;23.27;12.88;;;;;;;9.04;82.03;101858.66;5052006;28;20056;-41
2023/03/20 09:22:20;;;;;;;24.60;13.63;;;;;;;9.04;81.63;101872.44;5052234;28;20021;-41
2023/03/20 09:24:46;;;;;;;24.15;14.07;;;;;;;9.07;82.13;101879.34;5053450;28;20064;-42
2023/03/20 09:27:15;;;;;;;22.48;13.95;;;;;;;9.07;82.43;101873.84;5053494;28;20100;-41
2023/03/20 09:29:40;;;;;;;23.88;13.88;;;;;;;9.09;82.27;101871.63;5053446;28;20457;-41
2023/03/20 09:32:07;;;;;;;24.20;13.93;;;;;;;9.11;81.99;101874.97;5053598;28;20062;-41
2023/03/20 09:34:32;;;;;;;22.77;13.82;;;;;;;9.12;82.52;101882.13;5050866;28;20479;-41
2023/03/20 09:36:57;;;;;;;24.05;14.40;;;;;;;9.14;83.08;101868.88;5053517;28;20048;-41
2023/03/20 09:39:23;;;;;;;23.33;14.00;;;;;;;9.11;84.04;101866.69;5053218;28;20036;-41
2023/03/20 09:41:49;;;;;;;23.83;14.05;;;;;;;9.15;85.16;101879.69;5053096;28;20048;-42
2023/03/20 09:44:41;;;;;;;24.50;14.30;;;;;;;9.20;86.03;101885.19;5053222;28;20772;-41
2023/03/20 09:47:20;;;;;;;21.77;13.73;;;;;;;9.21;86.47;101875.81;5053234;28;20028;-41
2023/03/20 09:50:22;;;;;;;23.85;13.50;;;;;;;9.19;85.37;101878.00;5053137;28;20096;-41
2023/03/20 09:53:24;;;;;;;25.15;15.65;;;;;;;9.25;85.82;101887.16;5051890;28;20570;-42
2023/03/20 09:55:52;;;;;;;22.63;13.57;;;;;;;9.28;86.23;101886.59;5052571;28;20100;-41
2023/03/20 09:58:26;;;;;;;23.05;14.05;;;;;;;9.27;85.51;101882.19;5052879;28;20033;-41
2023/03/20 10:00:55;;;;;;;22.95;13.55;;;;;;;9.27;86.22;101881.34;5053302;28;20033;-41
2023/03/20 10:03:31;;;;;;;23.85;14.35;;;;;;;9.26;87.31;101866.72;5052747;28;20074;-41
2023/03/20 10:06:00;;;;;;;22.75;13.00;;;;;;;9.25;86.12;101878.03;5052848;28;20079;-41
2023/03/20 10:08:29;;;;;;;21.90;13.82;;;;;;;9.20;86.85;101876.91;5053193;28;20036;-41
2023/03/20 10:11:07;;;;;;;22.45;13.63;;;;;;;9.24;86.51;101877.19;5052850;28;20116;-41
2023/03/20 10:13:57;;;;;;;24.73;14.20;;;;;;;9.18;86.89;101872.78;5051425;28;20473;-41
2023/03/20 10:16:41;;;;;;;21.15;13.57;;;;;;;9.20;87.55;101874.16;5052718;28;20419;-41
2023/03/20 10:19:18;;;;;;;25.85;13.88;;;;;;;9.24;86.61;101879.16;5051182;28;20108;-41
2023/03/20 10:21:48;;;;;;;22.25;12.98;;;;;;;9.23;86.81;101866.44;5052375;28;20067;-41
2023/03/20 10:24:25;;;;;;;22.70;13.45;;;;;;;9.20;87.42;101856.78;5052567;28;20029;-41
2023/03/20 10:26:54;;;;;;;23.90;13.73;;;;;;;9.32;87.54;101862.03;5052436;28;20043;-40
2023/03/20 10:29:30;;;;;;;23.60;13.27;;;;;;;9.37;87.38;101856.50;5052308;28;20503;-40
2023/03/20 10:32:25;;;;;;;22.52;13.05;;;;;;;9.40;86.53;101861.50;5051034;28;20391;-40
2023/03/20 10:34:53;;;;;;;;;;;;;;;9.44;86.53;101867.31;5037969;28;20049;-40
2023/03/20 10:37:48;;;;;;;24.17;13.60;;;;;;;9.41;87.01;101854.03;5030479;28;19959;-41
2023/03/20 10:40:22;;;;;;;25.65;14.40;;;;;;;9.43;87.08;101868.41;5030018;28;20484;-41
2023/03/20 10:42:50;;;;;;;23.67;13.57;;;;;;;9.35;86.87;101844.94;5030416;28;20116;-41
2023/03/20 10:45:29;;;;;;;20.88;12.82;;;;;;;9.43;88.05;101849.06;5029707;28;20053;-41
2023/03/20 10:47:57;;;;;;;23.17;13.18;;;;;;;9.46;86.41;101846.59;5030147;28;20348;-41
2023/03/20 10:50:29;;;;;;;19.52;11.77;;;;;;;9.43;85.58;101840.78;5030080;28;20029;-41
2023/03/20 10:52:56;;;;;;;20.95;13.30;;;;;;;9.39;87.96;101846.03;5030115;28;20029;-40
2023/03/20 10:55:29;;;;;;;20.77;11.82;;;;;;;9.38;87.06;101851.84;5030131;28;20083;-48
2023/03/20 10:58:18;;;;;;;22.87;13.07;;;;;;;9.36;88.37;101861.22;5030221;28;20036;-41
2023/03/20 11:00:43;;;;;;;21.15;12.25;;;;;;;9.36;88.14;101852.09;5030055;28;20759;-41
2023/03/20 11:03:25;;;;;;;21.25;13.15;;;;;;;9.40;88.08;101847.69;5029887;28;20111;-41
2023/03/20 11:06:19;;;;;;;24.75;13.60;;;;;;;9.43;87.96;101852.69;5030081;28;20037;-41
2023/03/20 11:08:50;;;;;;;23.60;13.07;;;;;;;9.52;87.51;101853.78;5029999;28;20068;-41
2023/03/20 11:11:29;;;;;;;23.27;14.70;;;;;;;9.58;87.79;101846.34;5029839;28;20474;-41
2023/03/20 11:13:54;;;;;;;20.40;12.63;;;;;;;9.67;86.98;101850.22;5028410;28;20040;-40
2023/03/20 11:16:29;;;;;;;21.95;13.57;;;;;;;9.64;86.17;101850.75;5040655;28;20037;-41
2023/03/20 11:18:55;;;;;;;23.75;13.18;;;;;;;9.67;86.34;101827.28;5038766;28;20025;-40
2023/03/20 11:21:26;;;;;;;22.08;13.35;;;;;;;9.74;86.63;101829.75;5040013;28;20090;-40
2023/03/20 11:23:53;;;;;;;24.45;13.90;;;;;;;9.75;86.34;101823.94;5039164;28;20049;-40
2023/03/20 11:26:35;;;;;;;19.92;12.65;;;;;;;9.80;86.00;101821.22;5037868;28;20044;-40